sensor_id;sensor_type;location;lat;lon;timestamp;pressure;altitude;pressure_sealevel;temperature;humidity
216;BME280;64590;48.81286795;9.14184224;2023-01-10T00:01:54;97947.50;;;6.23;78.33
216;BME280;64590;48.81286795;9.14184224;2023-01-10T00:04:21;97955.94;;;6.08;78.16
216;BME280;64590;48.81286795;9.14184224;2023-01-10T00:06:48;97954.00;;;6.08;78.31
216;BME280;64590;48.81286795;9.14184224;2023-01-10T00:09:14;97955.06;;;6.00;78.46
216;BME280;64590;48.81286795;9.14184224;2023-01-10T00:11:42;97956.97;;;5.96;78.54
216;BME280;64590;48.81286795;9.14184224;2023-01-10T00:14:27;97961.88;;;5.83;78.98
216;BME280;64590;48.81286795;9.14184224;2023-01-10T00:16:54;97961.97;;;5.90;79.23
216;BME280;64590;48.81286795;9.14184224;2023-01-10T00:19:21;97960.69;;;5.84;79.79
216;BME280;64590;48.81286795;9.14184224;2023-01-10T00:21:47;97971.09;;;5.94;78.89
216;BME280;64590;48.81286795;9.14184224;2023-01-10T00:24:14;97970.44;;;6.01;79.24
216;BME280;64590;48.81286795;9.14184224;2023-01-10T00:26:47;97975.94;;;6.01;79.19
216;BME280;64590;48.81286795;9.14184224;2023-01-10T00:29:17;97980.91;;;5.92;79.45
216;BME280;64590;48.81286795;9.14184224;2023-01-10T00:31:43;97976.38;;;6.07;78.77
216;BME280;64590;48.81286795;9.14184224;2023-01-10T00:34:11;97976.72;;;6.02;79.64
216;BME280;64590;48.81286795;9.14184224;2023-01-10T00:36:37;97984.72;;;5.87;79.26
216;BME280;64590;48.81286795;9.14184224;2023-01-10T00:39:04;97996.69;;;5.95;80.25
216;BME280;64590;48.81286795;9.14184224;2023-01-10T00:41:37;97988.13;;;6.00;79.74
216;BME280;64590;48.81286795;9.14184224;2023-01-10T00:44:22;97995.94;;;5.98;80.31
216;BME280;64590;48.81286795;9.14184224;2023-01-10T00:46:50;98008.66;;;6.06;79.87
216;BME280;64590;48.81286795;9.14184224;2023-01-10T00:49:16;98003.22;;;5.87;80.32
216;BME280;64590;48.81286795;9.14184224;2023-01-10T00:51:43;98013.41;;;5.83;80.84
216;BME280;64590;48.81286795;9.14184224;2023-01-10T00:54:11;98014.66;;;5.89;80.83
216;BME280;64590;48.81286795;9.14184224;2023-01-10T00:56:38;98025.88;;;5.77;81.27
216;BME280;64590;48.81286795;9.14184224;2023-01-10T00:59:08;98019.63;;;5.80;81.05
216;BME280;64590;48.81286795;9.14184224;2023-01-10T01:01:36;98032.72;;;5.63;81.77
216;BME280;64590;48.81286795;9.14184224;2023-01-10T01:04:02;98029.44;;;5.77;82.28
216;BME280;64590;48.81286795;9.14184224;2023-01-10T01:06:29;98038.78;;;5.73;81.72
216;BME280;64590;48.81286795;9.14184224;2023-01-10T01:08:56;98047.00;;;5.69;82.40
216;BME280;64590;48.81286795;9.14184224;2023-01-10T01:11:22;98055.81;;;5.78;81.40
216;BME280;64590;48.81286795;9.14184224;2023-01-10T01:13:49;98043.25;;;5.81;81.22
216;BME280;64590;48.81286795;9.14184224;2023-01-10T01:16:16;98061.25;;;5.75;81.68
216;BME280;64590;48.81286795;9.14184224;2023-01-10T01:18:44;98069.63;;;5.82;81.65
216;BME280;64590;48.81286795;9.14184224;2023-01-10T01:21:10;98075.25;;;5.89;80.35
216;BME280;64590;48.81286795;9.14184224;2023-01-10T01:23:37;98081.13;;;5.87;80.33
216;BME280;64590;48.81286795;9.14184224;2023-01-10T01:26:04;98087.63;;;5.76;80.74
216;BME280;64590;48.81286795;9.14184224;2023-01-10T01:28:31;98093.63;;;5.81;79.95
216;BME280;64590;48.81286795;9.14184224;2023-01-10T01:30:58;98106.78;;;5.68;80.73
216;BME280;64590;48.81286795;9.14184224;2023-01-10T01:33:24;98099.81;;;5.75;80.64
216;BME280;64590;48.81286795;9.14184224;2023-01-10T01:35:52;98107.63;;;5.92;80.00
216;BME280;64590;48.81286795;9.14184224;2023-01-10T01:38:19;98110.75;;;5.71;80.61
216;BME280;64590;48.81286795;9.14184224;2023-01-10T01:40:45;98072.91;;;5.45;80.37
216;BME280;64590;48.81286795;9.14184224;2023-01-10T01:43:21;98125.25;;;5.68;80.38
216;BME280;64590;48.81286795;9.14184224;2023-01-10T01:45:49;98134.09;;;5.77;80.38
216;BME280;64590;48.81286795;9.14184224;2023-01-10T01:48:20;98131.19;;;5.70;79.88
216;BME280;64590;48.81286795;9.14184224;2023-01-10T01:50:54;98146.06;;;5.65;79.80
216;BME280;64590;48.81286795;9.14184224;2023-01-10T01:53:27;98160.41;;;5.55;79.99
216;BME280;64590;48.81286795;9.14184224;2023-01-10T01:55:57;98157.38;;;5.60;80.25
216;BME280;64590;48.81286795;9.14184224;2023-01-10T01:58:28;98150.88;;;5.49;80.77
216;BME280;64590;48.81286795;9.14184224;2023-01-10T02:00:58;98164.31;;;5.54;80.30
216;BME280;64590;48.81286795;9.14184224;2023-01-10T02:03:25;98164.41;;;5.58;80.00
216;BME280;64590;48.81286795;9.14184224;2023-01-10T02:05:53;98168.53;;;5.67;80.19
216;BME280;64590;48.81286795;9.14184224;2023-01-10T02:08:20;98173.88;;;5.60;80.12
216;BME280;64590;48.81286795;9.14184224;2023-01-10T02:10:52;98176.72;;;5.45;80.51
216;BME280;64590;48.81286795;9.14184224;2023-01-10T02:13:23;98189.34;;;5.65;81.07
216;BME280;64590;48.81286795;9.14184224;2023-01-10T02:15:50;98194.31;;;5.59;81.78
216;BME280;64590;48.81286795;9.14184224;2023-01-10T02:18:17;98200.84;;;5.51;82.07
216;BME280;64590;48.81286795;9.14184224;2023-01-10T02:21:03;98194.03;;;5.26;83.28
216;BME280;64590;48.81286795;9.14184224;2023-01-10T02:23:52;98196.91;;;5.14;84.93
216;BME280;64590;48.81286795;9.14184224;2023-01-10T02:26:48;98205.09;;;5.10;85.26
216;BME280;64590;48.81286795;9.14184224;2023-01-10T02:32:27;98222.53;;;5.18;86.05
216;BME280;64590;48.81286795;9.14184224;2023-01-10T02:35:07;98227.84;;;5.26;85.09
216;BME280;64590;48.81286795;9.14184224;2023-01-10T02:37:43;98237.44;;;4.97;86.89
216;BME280;64590;48.81286795;9.14184224;2023-01-10T02:40:19;98235.47;;;4.98;86.59
216;BME280;64590;48.81286795;9.14184224;2023-01-10T02:42:51;98242.75;;;4.90;86.79
216;BME280;64590;48.81286795;9.14184224;2023-01-10T02:45:25;98238.59;;;4.80;86.67
216;BME280;64590;48.81286795;9.14184224;2023-01-10T02:47:55;98249.16;;;4.78;86.74
216;BME280;64590;48.81286795;9.14184224;2023-01-10T02:50:41;98242.94;;;4.81;86.94
216;BME280;64590;48.81286795;9.14184224;2023-01-10T02:53:10;98249.59;;;4.96;86.07
216;BME280;64590;48.81286795;9.14184224;2023-01-10T02:58:41;98244.53;;;4.82;86.16
216;BME280;64590;48.81286795;9.14184224;2023-01-10T03:01:15;98257.13;;;4.68;86.29
216;BME280;64590;48.81286795;9.14184224;2023-01-10T03:03:53;98265.50;;;4.71;86.34
216;BME280;64590;48.81286795;9.14184224;2023-01-10T03:06:31;98278.94;;;4.76;86.45
216;BME280;64590;48.81286795;9.14184224;2023-01-10T03:09:04;98280.09;;;4.75;85.54
216;BME280;64590;48.81286795;9.14184224;2023-01-10T03:11:36;98289.50;;;4.90;85.91
216;BME280;64590;48.81286795;9.14184224;2023-01-10T03:14:14;98298.00;;;4.85;86.08
216;BME280;64590;48.81286795;9.14184224;2023-01-10T03:16:45;98298.47;;;4.87;85.53
216;BME280;64590;48.81286795;9.14184224;2023-01-10T03:19:16;98304.16;;;4.78;85.51
216;BME280;64590;48.81286795;9.14184224;2023-01-10T03:21:46;98310.28;;;4.88;85.14
216;BME280;64590;48.81286795;9.14184224;2023-01-10T03:24:19;98331.63;;;4.94;84.62
216;BME280;64590;48.81286795;9.14184224;2023-01-10T03:26:54;98335.47;;;5.05;84.59
216;BME280;64590;48.81286795;9.14184224;2023-01-10T03:29:27;98324.22;;;4.79;85.40
216;BME280;64590;48.81286795;9.14184224;2023-01-10T03:31:58;98332.78;;;5.09;84.13
216;BME280;64590;48.81286795;9.14184224;2023-01-10T03:34:27;98335.81;;;4.88;84.16
216;BME280;64590;48.81286795;9.14184224;2023-01-10T03:36:59;98351.78;;;4.98;84.18
216;BME280;64590;48.81286795;9.14184224;2023-01-10T03:39:33;98354.34;;;4.91;83.72
216;BME280;64590;48.81286795;9.14184224;2023-01-10T03:42:07;98355.88;;;4.89;84.78
216;BME280;64590;48.81286795;9.14184224;2023-01-10T03:44:40;98362.06;;;5.01;83.80
216;BME280;64590;48.81286795;9.14184224;2023-01-10T03:47:14;98358.16;;;5.02;83.75
216;BME280;64590;48.81286795;9.14184224;2023-01-10T03:49:46;98363.16;;;4.97;83.67
216;BME280;64590;48.81286795;9.14184224;2023-01-10T03:52:15;98372.03;;;5.06;83.74
216;BME280;64590;48.81286795;9.14184224;2023-01-10T03:54:43;98367.66;;;5.21;83.07
216;BME280;64590;48.81286795;9.14184224;2023-01-10T03:57:14;98369.59;;;5.20;83.34
216;BME280;64590;48.81286795;9.14184224;2023-01-10T03:59:41;98374.41;;;5.07;83.06
216;BME280;64590;48.81286795;9.14184224;2023-01-10T04:02:08;98377.66;;;5.29;82.73
216;BME280;64590;48.81286795;9.14184224;2023-01-10T04:04:35;98383.09;;;5.09;82.37
216;BME280;64590;48.81286795;9.14184224;2023-01-10T04:07:03;98385.94;;;4.97;83.83
216;BME280;64590;48.81286795;9.14184224;2023-01-10T04:09:29;98403.16;;;5.10;83.01
216;BME280;64590;48.81286795;9.14184224;2023-01-10T04:11:56;98404.78;;;4.95;83.11
216;BME280;64590;48.81286795;9.14184224;2023-01-10T04:14:22;98406.69;;;4.95;82.91
216;BME280;64590;48.81286795;9.14184224;2023-01-10T04:16:49;98412.31;;;4.98;82.32
216;BME280;64590;48.81286795;9.14184224;2023-01-10T04:19:15;98426.66;;;4.92;83.23
216;BME280;64590;48.81286795;9.14184224;2023-01-10T04:21:42;98434.34;;;4.86;82.96
216;BME280;64590;48.81286795;9.14184224;2023-01-10T04:24:10;98434.84;;;4.88;83.17
216;BME280;64590;48.81286795;9.14184224;2023-01-10T04:26:37;98437.47;;;4.85;83.27
216;BME280;64590;48.81286795;9.14184224;2023-01-10T04:29:04;98436.16;;;4.94;82.79
216;BME280;64590;48.81286795;9.14184224;2023-01-10T04:31:30;98438.03;;;4.90;82.65
216;BME280;64590;48.81286795;9.14184224;2023-01-10T04:33:57;98439.59;;;4.75;82.57
216;BME280;64590;48.81286795;9.14184224;2023-01-10T04:36:24;98448.63;;;4.76;82.75
216;BME280;64590;48.81286795;9.14184224;2023-01-10T04:38:51;98450.41;;;4.84;82.78
216;BME280;64590;48.81286795;9.14184224;2023-01-10T04:41:19;98460.81;;;4.91;82.49
216;BME280;64590;48.81286795;9.14184224;2023-01-10T04:43:46;98474.28;;;4.80;82.21
216;BME280;64590;48.81286795;9.14184224;2023-01-10T04:46:14;98476.25;;;4.79;82.66
216;BME280;64590;48.81286795;9.14184224;2023-01-10T04:48:40;98483.88;;;4.86;81.35
216;BME280;64590;48.81286795;9.14184224;2023-01-10T04:51:07;98492.03;;;4.82;81.48
216;BME280;64590;48.81286795;9.14184224;2023-01-10T04:53:33;98493.03;;;4.90;81.64
216;BME280;64590;48.81286795;9.14184224;2023-01-10T04:56:01;98498.78;;;4.85;81.75
216;BME280;64590;48.81286795;9.14184224;2023-01-10T04:58:31;98511.28;;;4.82;80.69
216;BME280;64590;48.81286795;9.14184224;2023-01-10T05:00:58;98513.97;;;4.95;80.43
216;BME280;64590;48.81286795;9.14184224;2023-01-10T05:03:24;98515.09;;;4.78;80.60
216;BME280;64590;48.81286795;9.14184224;2023-01-10T05:05:51;98523.56;;;4.73;80.81
216;BME280;64590;48.81286795;9.14184224;2023-01-10T05:08:17;98521.19;;;4.71;81.12
216;BME280;64590;48.81286795;9.14184224;2023-01-10T05:10:44;98530.53;;;4.82;80.75
216;BME280;64590;48.81286795;9.14184224;2023-01-10T05:13:10;98526.41;;;4.76;80.69
216;BME280;64590;48.81286795;9.14184224;2023-01-10T05:15:38;98533.78;;;5.00;79.93
216;BME280;64590;48.81286795;9.14184224;2023-01-10T05:18:05;98535.28;;;4.98;79.83
216;BME280;64590;48.81286795;9.14184224;2023-01-10T05:20:31;98531.72;;;4.97;80.25
216;BME280;64590;48.81286795;9.14184224;2023-01-10T05:22:58;98547.28;;;5.05;79.24
216;BME280;64590;48.81286795;9.14184224;2023-01-10T05:25:24;98557.38;;;5.01;78.54
216;BME280;64590;48.81286795;9.14184224;2023-01-10T05:27:51;98558.44;;;4.97;77.97
216;BME280;64590;48.81286795;9.14184224;2023-01-10T05:30:18;98557.13;;;5.06;78.04
216;BME280;64590;48.81286795;9.14184224;2023-01-10T05:32:46;98564.97;;;4.92;77.53
216;BME280;64590;48.81286795;9.14184224;2023-01-10T05:35:12;98560.03;;;4.98;77.80
216;BME280;64590;48.81286795;9.14184224;2023-01-10T05:37:39;98564.75;;;4.97;78.06
216;BME280;64590;48.81286795;9.14184224;2023-01-10T05:40:07;98570.25;;;4.97;78.32
216;BME280;64590;48.81286795;9.14184224;2023-01-10T05:42:33;98571.78;;;5.10;77.99
216;BME280;64590;48.81286795;9.14184224;2023-01-10T05:45:00;98579.22;;;5.10;77.55
216;BME280;64590;48.81286795;9.14184224;2023-01-10T05:47:27;98580.53;;;5.00;77.97
216;BME280;64590;48.81286795;9.14184224;2023-01-10T05:49:55;98575.94;;;5.04;77.57
216;BME280;64590;48.81286795;9.14184224;2023-01-10T05:52:21;98584.53;;;5.03;77.92
216;BME280;64590;48.81286795;9.14184224;2023-01-10T05:54:48;98586.47;;;5.02;77.75
216;BME280;64590;48.81286795;9.14184224;2023-01-10T05:57:14;98586.97;;;5.04;77.89
216;BME280;64590;48.81286795;9.14184224;2023-01-10T05:59:41;98590.00;;;5.15;77.90
216;BME280;64590;48.81286795;9.14184224;2023-01-10T06:02:07;98592.34;;;5.29;77.64
216;BME280;64590;48.81286795;9.14184224;2023-01-10T06:04:34;98593.19;;;5.17;76.49
216;BME280;64590;48.81286795;9.14184224;2023-01-10T06:07:02;98587.19;;;4.99;77.26
216;BME280;64590;48.81286795;9.14184224;2023-01-10T06:09:28;98594.50;;;5.07;76.29
216;BME280;64590;48.81286795;9.14184224;2023-01-10T06:11:55;98598.69;;;5.17;76.36
216;BME280;64590;48.81286795;9.14184224;2023-01-10T06:14:22;98601.50;;;5.05;76.00
216;BME280;64590;48.81286795;9.14184224;2023-01-10T06:16:48;98610.91;;;5.04;76.37
216;BME280;64590;48.81286795;9.14184224;2023-01-10T06:19:15;98606.88;;;5.14;76.70
216;BME280;64590;48.81286795;9.14184224;2023-01-10T06:21:42;98614.97;;;5.22;75.98
216;BME280;64590;48.81286795;9.14184224;2023-01-10T06:24:10;98616.38;;;5.16;76.97
216;BME280;64590;48.81286795;9.14184224;2023-01-10T06:26:37;98608.34;;;5.11;75.58
216;BME280;64590;48.81286795;9.14184224;2023-01-10T06:29:03;98622.50;;;5.25;76.17
216;BME280;64590;48.81286795;9.14184224;2023-01-10T06:31:30;98639.69;;;5.34;74.21
216;BME280;64590;48.81286795;9.14184224;2023-01-10T06:33:57;98636.88;;;5.19;75.92
216;BME280;64590;48.81286795;9.14184224;2023-01-10T06:36:23;98643.81;;;5.28;74.03
216;BME280;64590;48.81286795;9.14184224;2023-01-10T06:38:50;98664.75;;;5.17;75.39
216;BME280;64590;48.81286795;9.14184224;2023-01-10T06:41:18;98638.22;;;5.25;75.19
216;BME280;64590;48.81286795;9.14184224;2023-01-10T06:43:46;98670.03;;;5.38;74.83
216;BME280;64590;48.81286795;9.14184224;2023-01-10T06:46:15;98665.53;;;5.46;74.42
216;BME280;64590;48.81286795;9.14184224;2023-01-10T06:48:43;98666.53;;;5.53;73.33
216;BME280;64590;48.81286795;9.14184224;2023-01-10T06:51:10;98671.59;;;5.51;73.51
216;BME280;64590;48.81286795;9.14184224;2023-01-10T06:53:37;98673.41;;;5.31;72.84
216;BME280;64590;48.81286795;9.14184224;2023-01-10T06:56:04;98687.19;;;5.31;73.94
216;BME280;64590;48.81286795;9.14184224;2023-01-10T06:58:32;98692.06;;;5.38;74.14
216;BME280;64590;48.81286795;9.14184224;2023-01-10T07:00:59;98696.19;;;5.44;74.30
216;BME280;64590;48.81286795;9.14184224;2023-01-10T07:03:26;98692.28;;;5.45;73.67
216;BME280;64590;48.81286795;9.14184224;2023-01-10T07:05:52;98698.56;;;5.46;73.50
216;BME280;64590;48.81286795;9.14184224;2023-01-10T07:08:19;98694.88;;;5.54;73.58
216;BME280;64590;48.81286795;9.14184224;2023-01-10T07:10:45;98704.84;;;5.58;73.52
216;BME280;64590;48.81286795;9.14184224;2023-01-10T07:13:12;98704.50;;;5.60;73.37
216;BME280;64590;48.81286795;9.14184224;2023-01-10T07:15:40;98706.75;;;5.42;73.76
216;BME280;64590;48.81286795;9.14184224;2023-01-10T07:18:06;98720.31;;;5.63;73.41
216;BME280;64590;48.81286795;9.14184224;2023-01-10T07:20:33;98735.94;;;5.59;73.54
216;BME280;64590;48.81286795;9.14184224;2023-01-10T07:23:00;98736.81;;;5.63;72.80
216;BME280;64590;48.81286795;9.14184224;2023-01-10T07:25:27;98737.19;;;5.61;73.11
216;BME280;64590;48.81286795;9.14184224;2023-01-10T07:27:54;98742.13;;;5.56;73.10
216;BME280;64590;48.81286795;9.14184224;2023-01-10T07:30:22;98741.53;;;5.62;72.52
216;BME280;64590;48.81286795;9.14184224;2023-01-10T07:32:53;98746.38;;;5.53;73.42
216;BME280;64590;48.81286795;9.14184224;2023-01-10T07:35:20;98725.59;;;5.56;73.78
216;BME280;64590;48.81286795;9.14184224;2023-01-10T07:37:47;98729.41;;;5.79;73.11
216;BME280;64590;48.81286795;9.14184224;2023-01-10T07:40:13;98724.88;;;5.71;74.10
216;BME280;64590;48.81286795;9.14184224;2023-01-10T07:42:40;98744.50;;;5.70;74.45
216;BME280;64590;48.81286795;9.14184224;2023-01-10T07:45:07;98753.78;;;5.77;74.49
216;BME280;64590;48.81286795;9.14184224;2023-01-10T07:47:34;98766.59;;;5.85;74.33
216;BME280;64590;48.81286795;9.14184224;2023-01-10T07:50:02;98774.50;;;5.87;74.56
216;BME280;64590;48.81286795;9.14184224;2023-01-10T07:52:29;98786.91;;;5.81;74.96
216;BME280;64590;48.81286795;9.14184224;2023-01-10T07:54:56;98776.91;;;6.01;73.59
216;BME280;64590;48.81286795;9.14184224;2023-01-10T07:57:22;98783.88;;;5.98;73.59
216;BME280;64590;48.81286795;9.14184224;2023-01-10T07:59:49;98790.91;;;5.95;72.68
216;BME280;64590;48.81286795;9.14184224;2023-01-10T08:02:15;98809.69;;;6.06;73.57
216;BME280;64590;48.81286795;9.14184224;2023-01-10T08:04:42;98804.78;;;5.99;73.86
216;BME280;64590;48.81286795;9.14184224;2023-01-10T08:07:10;98807.66;;;6.03;72.87
216;BME280;64590;48.81286795;9.14184224;2023-01-10T08:09:36;98801.63;;;6.13;72.72
216;BME280;64590;48.81286795;9.14184224;2023-01-10T08:12:03;98798.94;;;6.16;72.54
216;BME280;64590;48.81286795;9.14184224;2023-01-10T08:14:29;98797.13;;;6.20;73.19
216;BME280;64590;48.81286795;9.14184224;2023-01-10T08:16:56;98800.50;;;6.30;72.58
216;BME280;64590;48.81286795;9.14184224;2023-01-10T08:19:22;98798.91;;;6.29;72.53
216;BME280;64590;48.81286795;9.14184224;2023-01-10T08:21:49;98815.59;;;6.20;72.14
216;BME280;64590;48.81286795;9.14184224;2023-01-10T08:24:17;98825.38;;;6.17;72.94
216;BME280;64590;48.81286795;9.14184224;2023-01-10T08:26:43;98826.78;;;6.11;72.69
216;BME280;64590;48.81286795;9.14184224;2023-01-10T08:29:10;98820.59;;;6.30;72.23
216;BME280;64590;48.81286795;9.14184224;2023-01-10T08:31:39;98825.31;;;6.30;70.27
216;BME280;64590;48.81286795;9.14184224;2023-01-10T08:34:06;98831.00;;;6.21;71.46
216;BME280;64590;48.81286795;9.14184224;2023-01-10T08:36:32;98843.41;;;6.15;72.63
216;BME280;64590;48.81286795;9.14184224;2023-01-10T08:38:59;98852.16;;;6.33;72.10
216;BME280;64590;48.81286795;9.14184224;2023-01-10T08:41:26;98838.34;;;6.45;70.79
216;BME280;64590;48.81286795;9.14184224;2023-01-10T08:43:53;98848.22;;;6.46;71.15
216;BME280;64590;48.81286795;9.14184224;2023-01-10T08:46:20;98853.97;;;6.41;70.08
216;BME280;64590;48.81286795;9.14184224;2023-01-10T08:48:46;98845.06;;;6.32;70.80
216;BME280;64590;48.81286795;9.14184224;2023-01-10T08:51:14;98843.13;;;6.48;70.38
216;BME280;64590;48.81286795;9.14184224;2023-01-10T08:53:41;98846.81;;;6.24;70.87
216;BME280;64590;48.81286795;9.14184224;2023-01-10T08:56:08;98848.16;;;6.30;72.23
216;BME280;64590;48.81286795;9.14184224;2023-01-10T08:58:37;98867.41;;;6.42;72.11
216;BME280;64590;48.81286795;9.14184224;2023-01-10T09:01:04;98860.28;;;6.41;71.05
216;BME280;64590;48.81286795;9.14184224;2023-01-10T09:03:31;98850.63;;;6.47;71.58
216;BME280;64590;48.81286795;9.14184224;2023-01-10T09:05:57;98865.97;;;6.33;71.99
216;BME280;64590;48.81286795;9.14184224;2023-01-10T09:08:24;98862.88;;;6.50;72.18
216;BME280;64590;48.81286795;9.14184224;2023-01-10T09:10:51;98862.28;;;6.57;71.56
216;BME280;64590;48.81286795;9.14184224;2023-01-10T09:13:18;98871.06;;;6.46;71.19
216;BME280;64590;48.81286795;9.14184224;2023-01-10T09:15:46;98881.38;;;6.49;70.29
216;BME280;64590;48.81286795;9.14184224;2023-01-10T09:18:12;98890.22;;;6.55;70.16
216;BME280;64590;48.81286795;9.14184224;2023-01-10T09:20:40;98882.09;;;6.46;70.67
216;BME280;64590;48.81286795;9.14184224;2023-01-10T09:23:10;98891.88;;;6.44;71.50
216;BME280;64590;48.81286795;9.14184224;2023-01-10T09:25:38;98890.47;;;6.50;71.39
216;BME280;64590;48.81286795;9.14184224;2023-01-10T09:28:05;98895.94;;;6.62;71.54
216;BME280;64590;48.81286795;9.14184224;2023-01-10T09:30:31;98899.56;;;6.66;71.56
216;BME280;64590;48.81286795;9.14184224;2023-01-10T09:32:59;98900.75;;;6.65;71.59
216;BME280;64590;48.81286795;9.14184224;2023-01-10T09:35:27;98907.31;;;6.61;72.05
216;BME280;64590;48.81286795;9.14184224;2023-01-10T09:37:55;98908.56;;;6.63;72.09
216;BME280;64590;48.81286795;9.14184224;2023-01-10T09:40:30;98904.00;;;6.55;71.24
216;BME280;64590;48.81286795;9.14184224;2023-01-10T09:43:05;98906.63;;;6.64;72.16
216;BME280;64590;48.81286795;9.14184224;2023-01-10T09:45:38;98920.44;;;6.79;70.74
216;BME280;64590;48.81286795;9.14184224;2023-01-10T09:48:15;98920.69;;;6.74;70.84
216;BME280;64590;48.81286795;9.14184224;2023-01-10T09:50:48;98918.56;;;6.84;70.56
216;BME280;64590;48.81286795;9.14184224;2023-01-10T09:53:21;98930.47;;;6.72;71.03
216;BME280;64590;48.81286795;9.14184224;2023-01-10T09:55:52;98935.69;;;6.89;71.25
216;BME280;64590;48.81286795;9.14184224;2023-01-10T09:58:23;98940.06;;;7.06;70.21
216;BME280;64590;48.81286795;9.14184224;2023-01-10T10:00:54;98938.53;;;6.93;70.98
216;BME280;64590;48.81286795;9.14184224;2023-01-10T10:03:31;98936.72;;;6.85;69.77
216;BME280;64590;48.81286795;9.14184224;2023-01-10T10:06:02;98928.84;;;6.55;70.31
216;BME280;64590;48.81286795;9.14184224;2023-01-10T10:08:29;98932.09;;;6.45;70.45
216;BME280;64590;48.81286795;9.14184224;2023-01-10T10:11:02;98928.06;;;6.42;70.87
216;BME280;64590;48.81286795;9.14184224;2023-01-10T10:13:39;98930.53;;;6.60;71.42
216;BME280;64590;48.81286795;9.14184224;2023-01-10T10:16:16;98921.19;;;6.64;71.51
216;BME280;64590;48.81286795;9.14184224;2023-01-10T10:18:56;98925.69;;;6.85;72.39
216;BME280;64590;48.81286795;9.14184224;2023-01-10T10:21:33;98918.03;;;6.94;71.35
216;BME280;64590;48.81286795;9.14184224;2023-01-10T10:24:24;98920.09;;;6.81;71.74
216;BME280;64590;48.81286795;9.14184224;2023-01-10T10:26:56;98919.09;;;6.73;71.52
216;BME280;64590;48.81286795;9.14184224;2023-01-10T10:29:49;98921.25;;;6.80;71.95
216;BME280;64590;48.81286795;9.14184224;2023-01-10T10:32:34;98929.69;;;6.71;73.47
216;BME280;64590;48.81286795;9.14184224;2023-01-10T10:35:11;98927.59;;;6.68;72.64
216;BME280;64590;48.81286795;9.14184224;2023-01-10T10:37:40;98931.00;;;6.77;73.06
216;BME280;64590;48.81286795;9.14184224;2023-01-10T10:40:17;98923.84;;;6.89;72.53
216;BME280;64590;48.81286795;9.14184224;2023-01-10T10:42:47;98924.28;;;6.91;72.06
216;BME280;64590;48.81286795;9.14184224;2023-01-10T10:45:18;98925.41;;;6.74;70.50
216;BME280;64590;48.81286795;9.14184224;2023-01-10T10:47:49;98924.38;;;6.78;70.61
216;BME280;64590;48.81286795;9.14184224;2023-01-10T10:50:24;98917.88;;;6.87;69.26
216;BME280;64590;48.81286795;9.14184224;2023-01-10T10:52:54;98914.25;;;6.98;68.98
216;BME280;64590;48.81286795;9.14184224;2023-01-10T10:55:27;98902.28;;;6.94;69.98
216;BME280;64590;48.81286795;9.14184224;2023-01-10T10:57:54;98909.94;;;6.85;69.67
216;BME280;64590;48.81286795;9.14184224;2023-01-10T11:00:23;98922.06;;;6.96;70.42
216;BME280;64590;48.81286795;9.14184224;2023-01-10T11:02:53;98921.97;;;7.08;70.79
216;BME280;64590;48.81286795;9.14184224;2023-01-10T11:05:30;98923.56;;;6.94;71.46
216;BME280;64590;48.81286795;9.14184224;2023-01-10T11:08:02;98921.59;;;6.94;71.00
216;BME280;64590;48.81286795;9.14184224;2023-01-10T11:10:32;98926.69;;;6.92;71.93
216;BME280;64590;48.81286795;9.14184224;2023-01-10T11:13:07;98938.97;;;6.95;71.74
216;BME280;64590;48.81286795;9.14184224;2023-01-10T11:15:40;98943.84;;;6.86;73.21
216;BME280;64590;48.81286795;9.14184224;2023-01-10T11:18:10;98929.38;;;7.04;71.82
216;BME280;64590;48.81286795;9.14184224;2023-01-10T11:20:47;98927.97;;;7.26;72.31
216;BME280;64590;48.81286795;9.14184224;2023-01-10T11:23:23;98929.03;;;7.22;73.17
216;BME280;64590;48.81286795;9.14184224;2023-01-10T11:25:51;98928.56;;;7.51;71.78
216;BME280;64590;48.81286795;9.14184224;2023-01-10T11:28:21;98930.78;;;7.61;70.10
216;BME280;64590;48.81286795;9.14184224;2023-01-10T11:30:50;98925.00;;;7.67;70.77
216;BME280;64590;48.81286795;9.14184224;2023-01-10T11:33:19;98923.09;;;7.71;70.90
216;BME280;64590;48.81286795;9.14184224;2023-01-10T11:35:59;98927.56;;;7.75;67.44
216;BME280;64590;48.81286795;9.14184224;2023-01-10T11:38:27;98932.38;;;7.62;68.48
216;BME280;64590;48.81286795;9.14184224;2023-01-10T11:40:57;98928.81;;;7.78;67.39
216;BME280;64590;48.81286795;9.14184224;2023-01-10T11:43:27;98931.69;;;7.50;67.12
216;BME280;64590;48.81286795;9.14184224;2023-01-10T11:45:56;98925.31;;;7.30;68.29
216;BME280;64590;48.81286795;9.14184224;2023-01-10T11:48:42;98922.25;;;7.35;69.02
216;BME280;64590;48.81286795;9.14184224;2023-01-10T11:51:22;98930.81;;;7.46;67.18
216;BME280;64590;48.81286795;9.14184224;2023-01-10T11:53:56;98927.41;;;7.21;67.21
216;BME280;64590;48.81286795;9.14184224;2023-01-10T11:56:26;98911.31;;;7.07;67.47
216;BME280;64590;48.81286795;9.14184224;2023-01-10T11:58:53;98912.66;;;7.13;67.91
216;BME280;64590;48.81286795;9.14184224;2023-01-10T12:01:25;98909.59;;;7.18;67.28
216;BME280;64590;48.81286795;9.14184224;2023-01-10T12:03:52;98903.72;;;7.35;66.71
216;BME280;64590;48.81286795;9.14184224;2023-01-10T12:06:20;98913.00;;;7.27;67.93
216;BME280;64590;48.81286795;9.14184224;2023-01-10T12:08:47;98917.72;;;7.27;67.62
216;BME280;64590;48.81286795;9.14184224;2023-01-10T12:11:23;98915.00;;;7.62;67.64